sensor_id;sensor_type;location;lat;lon;timestamp;P1;durP1;ratioP1;P2;durP2;ratioP2
54193;SDS011;40102;50.906;6.972;2022-09-21T00:00:50;7.32;;;2.40;;
54193;SDS011;40102;50.906;6.972;2022-09-21T00:03:15;3.42;;;1.90;;
54193;SDS011;40102;50.906;6.972;2022-09-21T00:05:41;5.43;;;2.10;;
54193;SDS011;40102;50.906;6.972;2022-09-21T00:08:09;4.30;;;2.40;;
54193;SDS011;40102;50.906;6.972;2022-09-21T00:10:36;4.68;;;2.35;;
54193;SDS011;40102;50.906;6.972;2022-09-21T00:13:02;5.72;;;2.70;;
54193;SDS011;40102;50.906;6.972;2022-09-21T00:15:28;5.43;;;2.35;;
54193;SDS011;40102;50.906;6.972;2022-09-21T00:17:55;3.35;;;2.30;;
54193;SDS011;40102;50.906;6.972;2022-09-21T00:20:23;3.47;;;1.90;;
54193;SDS011;40102;50.906;6.972;2022-09-21T00:22:49;3.55;;;2.00;;
54193;SDS011;40102;50.906;6.972;2022-09-21T00:25:15;5.97;;;2.20;;
54193;SDS011;40102;50.906;6.972;2022-09-21T00:27:41;4.97;;;2.30;;
54193;SDS011;40102;50.906;6.972;2022-09-21T00:30:07;4.05;;;2.35;;
54193;SDS011;40102;50.906;6.972;2022-09-21T00:32:33;3.05;;;1.65;;
54193;SDS011;40102;50.906;6.972;2022-09-21T00:35:01;4.10;;;1.75;;
54193;SDS011;40102;50.906;6.972;2022-09-21T00:37:27;3.45;;;1.90;;
54193;SDS011;40102;50.906;6.972;2022-09-21T00:39:53;3.55;;;1.85;;
54193;SDS011;40102;50.906;6.972;2022-09-21T00:42:29;6.38;;;2.30;;
54193;SDS011;40102;50.906;6.972;2022-09-21T00:44:57;3.45;;;1.90;;
54193;SDS011;40102;50.906;6.972;2022-09-21T00:47:41;2.60;;;1.60;;
54193;SDS011;40102;50.906;6.972;2022-09-21T00:50:09;3.72;;;2.05;;
54193;SDS011;40102;50.906;6.972;2022-09-21T00:55:10;3.13;;;1.85;;
54193;SDS011;40102;50.906;6.972;2022-09-21T00:57:41;4.47;;;1.52;;
54193;SDS011;40102;50.906;6.972;2022-09-21T01:00:10;3.88;;;1.50;;
54193;SDS011;40102;50.906;6.972;2022-09-21T01:02:36;4.28;;;1.80;;
54193;SDS011;40102;50.906;6.972;2022-09-21T01:05:03;3.53;;;1.90;;
54193;SDS011;40102;50.906;6.972;2022-09-21T01:07:31;3.70;;;1.80;;
54193;SDS011;40102;50.906;6.972;2022-09-21T01:10:00;2.55;;;1.60;;
54193;SDS011;40102;50.906;6.972;2022-09-21T01:31:51;4.80;;;1.85;;
54193;SDS011;40102;50.906;6.972;2022-09-21T01:34:27;3.88;;;1.92;;
54193;SDS011;40102;50.906;6.972;2022-09-21T01:36:58;2.80;;;1.73;;
54193;SDS011;40102;50.906;6.972;2022-09-21T01:39:28;3.67;;;2.10;;
54193;SDS011;40102;50.906;6.972;2022-09-21T01:41:56;5.75;;;2.30;;
54193;SDS011;40102;50.906;6.972;2022-09-21T01:44:25;6.47;;;2.30;;
54193;SDS011;40102;50.906;6.972;2022-09-21T01:46:57;4.70;;;2.20;;
54193;SDS011;40102;50.906;6.972;2022-09-21T01:49:34;5.57;;;1.98;;
54193;SDS011;40102;50.906;6.972;2022-09-21T01:55:03;2.97;;;1.83;;
54193;SDS011;40102;50.906;6.972;2022-09-21T02:00:38;3.88;;;2.08;;
54193;SDS011;40102;50.906;6.972;2022-09-21T02:03:48;4.90;;;2.17;;
54193;SDS011;40102;50.906;6.972;2022-09-21T02:06:00;3.83;;;2.33;;
54193;SDS011;40102;50.906;6.972;2022-09-21T02:08:26;7.35;;;2.30;;
54193;SDS011;40102;50.906;6.972;2022-09-21T02:10:56;3.40;;;2.20;;
54193;SDS011;40102;50.906;6.972;2022-09-21T02:13:23;3.35;;;2.08;;
54193;SDS011;40102;50.906;6.972;2022-09-21T02:26:57;4.88;;;2.60;;
54193;SDS011;40102;50.906;6.972;2022-09-21T02:29:54;10.52;;;3.03;;
54193;SDS011;40102;50.906;6.972;2022-09-21T02:42:52;7.57;;;3.65;;
54193;SDS011;40102;50.906;6.972;2022-09-21T02:45:27;6.57;;;3.05;;
54193;SDS011;40102;50.906;6.972;2022-09-21T02:48:35;6.68;;;3.00;;
54193;SDS011;40102;50.906;6.972;2022-09-21T02:51:02;5.18;;;3.00;;
54193;SDS011;40102;50.906;6.972;2022-09-21T02:53:33;4.78;;;3.22;;
54193;SDS011;40102;50.906;6.972;2022-09-21T02:56:01;7.15;;;3.35;;
54193;SDS011;40102;50.906;6.972;2022-09-21T02:58:31;5.40;;;3.08;;
54193;SDS011;40102;50.906;6.972;2022-09-21T03:01:01;10.10;;;3.20;;
54193;SDS011;40102;50.906;6.972;2022-09-21T03:03:31;5.13;;;2.65;;
54193;SDS011;40102;50.906;6.972;2022-09-21T03:05:57;3.50;;;2.30;;
54193;SDS011;40102;50.906;6.972;2022-09-21T03:08:26;3.50;;;2.40;;
54193;SDS011;40102;50.906;6.972;2022-09-21T03:10:52;6.88;;;3.75;;
54193;SDS011;40102;50.906;6.972;2022-09-21T03:13:17;4.97;;;3.00;;
54193;SDS011;40102;50.906;6.972;2022-09-21T03:15:43;5.25;;;3.20;;
54193;SDS011;40102;50.906;6.972;2022-09-21T03:18:10;4.63;;;3.10;;
54193;SDS011;40102;50.906;6.972;2022-09-21T03:20:39;6.57;;;3.30;;
54193;SDS011;40102;50.906;6.972;2022-09-21T03:23:10;5.72;;;3.30;;
54193;SDS011;40102;50.906;6.972;2022-09-21T03:25:36;4.97;;;3.10;;
54193;SDS011;40102;50.906;6.972;2022-09-21T03:28:02;5.88;;;3.38;;
54193;SDS011;40102;50.906;6.972;2022-09-21T03:30:27;6.15;;;4.07;;
54193;SDS011;40102;50.906;6.972;2022-09-21T03:32:53;6.85;;;3.30;;
54193;SDS011;40102;50.906;6.972;2022-09-21T03:35:20;6.20;;;3.60;;
54193;SDS011;40102;50.906;6.972;2022-09-21T03:37:47;4.15;;;2.78;;
54193;SDS011;40102;50.906;6.972;2022-09-21T03:40:14;11.93;;;4.15;;
54193;SDS011;40102;50.906;6.972;2022-09-21T03:42:41;6.35;;;3.40;;
54193;SDS011;40102;50.906;6.972;2022-09-21T03:45:08;6.20;;;3.22;;
54193;SDS011;40102;50.906;6.972;2022-09-21T03:47:35;5.97;;;3.70;;
54193;SDS011;40102;50.906;6.972;2022-09-21T03:50:01;7.40;;;3.65;;
54193;SDS011;40102;50.906;6.972;2022-09-21T03:52:27;7.75;;;4.60;;
54193;SDS011;40102;50.906;6.972;2022-09-21T03:54:52;6.82;;;3.65;;
54193;SDS011;40102;50.906;6.972;2022-09-21T03:57:19;9.60;;;3.88;;
54193;SDS011;40102;50.906;6.972;2022-09-21T03:59:48;5.22;;;3.90;;
54193;SDS011;40102;50.906;6.972;2022-09-21T04:02:14;9.23;;;4.30;;
54193;SDS011;40102;50.906;6.972;2022-09-21T04:04:39;6.75;;;4.00;;
54193;SDS011;40102;50.906;6.972;2022-09-21T04:07:05;8.43;;;3.97;;
54193;SDS011;40102;50.906;6.972;2022-09-21T04:09:30;4.90;;;3.80;;
54193;SDS011;40102;50.906;6.972;2022-09-21T04:11:58;7.80;;;4.30;;
54193;SDS011;40102;50.906;6.972;2022-09-21T04:14:26;9.20;;;4.13;;
54193;SDS011;40102;50.906;6.972;2022-09-21T04:16:51;6.13;;;4.47;;
54193;SDS011;40102;50.906;6.972;2022-09-21T04:19:17;8.13;;;4.00;;
54193;SDS011;40102;50.906;6.972;2022-09-21T04:21:42;7.03;;;4.25;;
54193;SDS011;40102;50.906;6.972;2022-09-21T04:24:08;8.45;;;4.18;;
54193;SDS011;40102;50.906;6.972;2022-09-21T04:26:33;8.43;;;4.53;;
54193;SDS011;40102;50.906;6.972;2022-09-21T04:29:00;10.82;;;4.60;;
54193;SDS011;40102;50.906;6.972;2022-09-21T04:31:26;7.35;;;4.95;;
54193;SDS011;40102;50.906;6.972;2022-09-21T04:33:56;8.20;;;4.68;;
54193;SDS011;40102;50.906;6.972;2022-09-21T04:36:23;6.60;;;4.47;;
54193;SDS011;40102;50.906;6.972;2022-09-21T04:38:49;7.05;;;4.35;;
54193;SDS011;40102;50.906;6.972;2022-09-21T04:41:15;8.95;;;4.60;;
54193;SDS011;40102;50.906;6.972;2022-09-21T04:43:42;6.65;;;4.35;;
54193;SDS011;40102;50.906;6.972;2022-09-21T04:46:09;8.38;;;4.50;;
54193;SDS011;40102;50.906;6.972;2022-09-21T04:48:37;6.70;;;4.20;;
54193;SDS011;40102;50.906;6.972;2022-09-21T04:51:03;10.23;;;4.70;;
54193;SDS011;40102;50.906;6.972;2022-09-21T04:53:32;6.88;;;4.68;;
54193;SDS011;40102;50.906;6.972;2022-09-21T04:55:58;10.93;;;5.20;;
54193;SDS011;40102;50.906;6.972;2022-09-21T04:58:24;11.38;;;4.75;;
54193;SDS011;40102;50.906;6.972;2022-09-21T05:00:50;8.05;;;4.90;;
54193;SDS011;40102;50.906;6.972;2022-09-21T05:03:19;9.93;;;5.13;;
54193;SDS011;40102;50.906;6.972;2022-09-21T05:05:48;9.35;;;5.07;;
54193;SDS011;40102;50.906;6.972;2022-09-21T05:08:20;8.32;;;5.00;;
54193;SDS011;40102;50.906;6.972;2022-09-21T05:11:07;8.68;;;4.80;;
54193;SDS011;40102;50.906;6.972;2022-09-21T05:13:35;10.38;;;5.45;;
54193;SDS011;40102;50.906;6.972;2022-09-21T05:16:00;10.75;;;4.80;;
54193;SDS011;40102;50.906;6.972;2022-09-21T05:18:26;11.60;;;5.28;;
54193;SDS011;40102;50.906;6.972;2022-09-21T05:20:58;46.22;;;10.38;;
54193;SDS011;40102;50.906;6.972;2022-09-21T05:23:25;21.02;;;7.20;;
54193;SDS011;40102;50.906;6.972;2022-09-21T05:25:53;10.57;;;6.13;;
54193;SDS011;40102;50.906;6.972;2022-09-21T05:28:19;7.65;;;5.15;;
54193;SDS011;40102;50.906;6.972;2022-09-21T05:30:45;10.25;;;6.20;;
54193;SDS011;40102;50.906;6.972;2022-09-21T05:33:19;10.00;;;4.82;;
54193;SDS011;40102;50.906;6.972;2022-09-21T05:36:06;9.25;;;4.85;;
54193;SDS011;40102;50.906;6.972;2022-09-21T05:38:54;9.25;;;4.75;;
54193;SDS011;40102;50.906;6.972;2022-09-21T05:41:20;8.98;;;4.32;;
54193;SDS011;40102;50.906;6.972;2022-09-21T05:43:46;12.02;;;5.07;;
54193;SDS011;40102;50.906;6.972;2022-09-21T05:46:16;10.40;;;5.10;;
54193;SDS011;40102;50.906;6.972;2022-09-21T06:05:25;7.82;;;4.45;;
54193;SDS011;40102;50.906;6.972;2022-09-21T06:07:51;11.07;;;4.28;;
54193;SDS011;40102;50.906;6.972;2022-09-21T06:10:16;8.13;;;4.43;;
54193;SDS011;40102;50.906;6.972;2022-09-21T06:12:42;6.43;;;3.95;;
54193;SDS011;40102;50.906;6.972;2022-09-21T06:15:10;13.45;;;7.50;;
54193;SDS011;40102;50.906;6.972;2022-09-21T06:20:03;7.97;;;4.60;;
54193;SDS011;40102;50.906;6.972;2022-09-21T06:22:32;7.43;;;3.97;;
54193;SDS011;40102;50.906;6.972;2022-09-21T06:24:58;7.43;;;4.30;;
54193;SDS011;40102;50.906;6.972;2022-09-21T06:27:23;10.77;;;5.03;;
54193;SDS011;40102;50.906;6.972;2022-09-21T06:29:49;11.93;;;5.57;;
54193;SDS011;40102;50.906;6.972;2022-09-21T06:32:16;16.38;;;8.60;;
54193;SDS011;40102;50.906;6.972;2022-09-21T06:34:42;16.13;;;8.82;;
54193;SDS011;40102;50.906;6.972;2022-09-21T06:37:07;9.52;;;5.32;;
54193;SDS011;40102;50.906;6.972;2022-09-21T06:39:33;7.63;;;4.63;;
54193;SDS011;40102;50.906;6.972;2022-09-21T06:41:58;7.95;;;4.93;;
54193;SDS011;40102;50.906;6.972;2022-09-21T06:44:26;8.70;;;5.38;;
54193;SDS011;40102;50.906;6.972;2022-09-21T06:46:55;8.48;;;4.70;;
54193;SDS011;40102;50.906;6.972;2022-09-21T06:49:20;9.05;;;4.72;;
54193;SDS011;40102;50.906;6.972;2022-09-21T06:51:46;12.20;;;5.30;;
54193;SDS011;40102;50.906;6.972;2022-09-21T06:54:12;7.45;;;4.63;;
54193;SDS011;40102;50.906;6.972;2022-09-21T06:56:38;10.88;;;5.85;;
54193;SDS011;40102;50.906;6.972;2022-09-21T07:02:43;6.18;;;4.50;;
54193;SDS011;40102;50.906;6.972;2022-09-21T07:05:09;9.23;;;5.15;;
54193;SDS011;40102;50.906;6.972;2022-09-21T07:07:35;7.32;;;5.13;;
54193;SDS011;40102;50.906;6.972;2022-09-21T07:10:01;6.95;;;4.90;;
54193;SDS011;40102;50.906;6.972;2022-09-21T07:12:27;8.35;;;5.40;;
54193;SDS011;40102;50.906;6.972;2022-09-21T07:14:56;6.80;;;4.38;;
54193;SDS011;40102;50.906;6.972;2022-09-21T07:17:21;6.07;;;3.83;;
54193;SDS011;40102;50.906;6.972;2022-09-21T07:19:47;6.03;;;3.70;;
54193;SDS011;40102;50.906;6.972;2022-09-21T07:22:12;9.82;;;5.43;;
54193;SDS011;40102;50.906;6.972;2022-09-21T07:24:37;7.80;;;4.97;;
54193;SDS011;40102;50.906;6.972;2022-09-21T07:27:03;8.88;;;5.57;;
54193;SDS011;40102;50.906;6.972;2022-09-21T07:29:29;6.97;;;5.05;;
54193;SDS011;40102;50.906;6.972;2022-09-21T07:31:54;9.07;;;5.20;;
54193;SDS011;40102;50.906;6.972;2022-09-21T07:34:22;7.85;;;4.47;;
54193;SDS011;40102;50.906;6.972;2022-09-21T07:36:47;8.57;;;5.38;;
54193;SDS011;40102;50.906;6.972;2022-09-21T07:39:13;13.65;;;7.65;;
54193;SDS011;40102;50.906;6.972;2022-09-21T07:41:38;11.00;;;7.22;;
54193;SDS011;40102;50.906;6.972;2022-09-21T07:44:04;8.75;;;6.35;;
54193;SDS011;40102;50.906;6.972;2022-09-21T07:46:29;9.60;;;5.70;;
54193;SDS011;40102;50.906;6.972;2022-09-21T07:48:57;7.82;;;5.40;;
54193;SDS011;40102;50.906;6.972;2022-09-21T07:51:23;8.60;;;5.35;;
54193;SDS011;40102;50.906;6.972;2022-09-21T07:53:52;12.18;;;6.47;;
54193;SDS011;40102;50.906;6.972;2022-09-21T07:56:22;14.00;;;6.85;;
54193;SDS011;40102;50.906;6.972;2022-09-21T07:58:48;11.90;;;7.07;;
54193;SDS011;40102;50.906;6.972;2022-09-21T08:01:33;9.57;;;6.45;;
54193;SDS011;40102;50.906;6.972;2022-09-21T08:04:01;9.95;;;6.28;;
54193;SDS011;40102;50.906;6.972;2022-09-21T08:06:28;10.35;;;6.25;;
54193;SDS011;40102;50.906;6.972;2022-09-21T08:08:56;9.20;;;6.00;;
54193;SDS011;40102;50.906;6.972;2022-09-21T08:11:26;8.52;;;5.72;;
54193;SDS011;40102;50.906;6.972;2022-09-21T08:13:55;7.90;;;5.30;;
54193;SDS011;40102;50.906;6.972;2022-09-21T08:18:50;8.00;;;5.78;;
54193;SDS011;40102;50.906;6.972;2022-09-21T08:21:18;9.93;;;6.57;;
54193;SDS011;40102;50.906;6.972;2022-09-21T08:23:44;13.13;;;7.22;;
54193;SDS011;40102;50.906;6.972;2022-09-21T08:26:11;10.07;;;6.40;;
54193;SDS011;40102;50.906;6.972;2022-09-21T08:28:42;10.52;;;7.43;;
54193;SDS011;40102;50.906;6.972;2022-09-21T08:31:08;13.73;;;8.00;;
54193;SDS011;40102;50.906;6.972;2022-09-21T08:33:34;11.20;;;7.80;;
54193;SDS011;40102;50.906;6.972;2022-09-21T08:36:00;10.63;;;7.57;;
54193;SDS011;40102;50.906;6.972;2022-09-21T08:38:30;14.07;;;7.30;;
54193;SDS011;40102;50.906;6.972;2022-09-21T08:46:00;11.50;;;7.45;;
54193;SDS011;40102;50.906;6.972;2022-09-21T08:51:02;13.15;;;7.38;;
54193;SDS011;40102;50.906;6.972;2022-09-21T08:53:31;11.88;;;7.18;;
54193;SDS011;40102;50.906;6.972;2022-09-21T08:55:57;13.57;;;7.88;;
54193;SDS011;40102;50.906;6.972;2022-09-21T08:58:24;14.07;;;8.65;;
54193;SDS011;40102;50.906;6.972;2022-09-21T09:03:37;16.88;;;8.23;;
54193;SDS011;40102;50.906;6.972;2022-09-21T09:06:18;13.95;;;8.20;;
54193;SDS011;40102;50.906;6.972;2022-09-21T09:08:59;13.07;;;7.67;;
54193;SDS011;40102;50.906;6.972;2022-09-21T09:14:41;11.98;;;7.45;;
54193;SDS011;40102;50.906;6.972;2022-09-21T09:20:18;11.05;;;7.43;;
54193;SDS011;40102;50.906;6.972;2022-09-21T09:22:55;10.05;;;6.70;;
54193;SDS011;40102;50.906;6.972;2022-09-21T09:26:14;10.07;;;6.70;;
54193;SDS011;40102;50.906;6.972;2022-09-21T09:31:03;9.40;;;6.07;;
54193;SDS011;40102;50.906;6.972;2022-09-21T09:36:19;11.88;;;6.53;;
54193;SDS011;40102;50.906;6.972;2022-09-21T09:38:51;11.80;;;5.90;;
54193;SDS011;40102;50.906;6.972;2022-09-21T09:44:22;8.82;;;5.65;;
54193;SDS011;40102;50.906;6.972;2022-09-21T09:47:14;8.23;;;4.68;;
54193;SDS011;40102;50.906;6.972;2022-09-21T09:52:31;9.82;;;6.40;;
54193;SDS011;40102;50.906;6.972;2022-09-21T09:55:04;10.38;;;5.50;;
54193;SDS011;40102;50.906;6.972;2022-09-21T09:57:41;10.68;;;6.55;;
54193;SDS011;40102;50.906;6.972;2022-09-21T10:00:11;9.82;;;6.03;;
54193;SDS011;40102;50.906;6.972;2022-09-21T10:02:48;7.60;;;4.93;;
54193;SDS011;40102;50.906;6.972;2022-09-21T10:05:18;14.30;;;7.63;;
54193;SDS011;40102;50.906;6.972;2022-09-21T10:07:46;9.43;;;6.10;;
54193;SDS011;40102;50.906;6.972;2022-09-21T10:10:22;10.35;;;6.30;;
54193;SDS011;40102;50.906;6.972;2022-09-21T10:15:54;10.32;;;4.80;;
54193;SDS011;40102;50.906;6.972;2022-09-21T10:18:26;8.82;;;5.03;;
54193;SDS011;40102;50.906;6.972;2022-09-21T10:20:54;7.28;;;4.00;;
54193;SDS011;40102;50.906;6.972;2022-09-21T10:23:20;6.43;;;3.80;;
54193;SDS011;40102;50.906;6.972;2022-09-21T10:25:57;6.60;;;3.67;;
54193;SDS011;40102;50.906;6.972;2022-09-21T10:28:25;6.60;;;3.35;;
54193;SDS011;40102;50.906;6.972;2022-09-21T10:33:41;5.65;;;3.10;;
54193;SDS011;40102;50.906;6.972;2022-09-21T10:36:25;4.20;;;2.50;;
54193;SDS011;40102;50.906;6.972;2022-09-21T10:38:52;5.72;;;3.20;;
54193;SDS011;40102;50.906;6.972;2022-09-21T10:41:17;4.95;;;2.67;;
54193;SDS011;40102;50.906;6.972;2022-09-21T10:43:43;6.25;;;2.85;;
54193;SDS011;40102;50.906;6.972;2022-09-21T10:46:09;4.97;;;2.10;;
54193;SDS011;40102;50.906;6.972;2022-09-21T10:48:35;3.72;;;1.60;;
54193;SDS011;40102;50.906;6.972;2022-09-21T10:51:01;4.13;;;1.95;;
54193;SDS011;40102;50.906;6.972;2022-09-21T10:53:31;6.68;;;1.67;;
54193;SDS011;40102;50.906;6.972;2022-09-21T10:56:16;5.93;;;1.63;;
54193;SDS011;40102;50.906;6.972;2022-09-21T11:01:48;3.38;;;1.58;;
54193;SDS011;40102;50.906;6.972;2022-09-21T11:04:17;2.78;;;1.30;;
54193;SDS011;40102;50.906;6.972;2022-09-21T11:06:45;2.72;;;1.30;;
54193;SDS011;40102;50.906;6.972;2022-09-21T11:09:17;2.40;;;1.08;;
54193;SDS011;40102;50.906;6.972;2022-09-21T11:11:49;3.42;;;1.30;;
54193;SDS011;40102;50.906;6.972;2022-09-21T11:17:00;4.15;;;1.60;;
54193;SDS011;40102;50.906;6.972;2022-09-21T11:22:27;5.07;;;2.45;;
54193;SDS011;40102;50.906;6.972;2022-09-21T11:28:12;3.15;;;1.60;;
54193;SDS011;40102;50.906;6.972;2022-09-21T11:30:57;6.97;;;1.67;;
54193;SDS011;40102;50.906;6.972;2022-09-21T11:33:30;4.72;;;1.50;;
54193;SDS011;40102;50.906;6.972;2022-09-21T11:43:40;2.50;;;1.45;;
54193;SDS011;40102;50.906;6.972;2022-09-21T11:54:38;2.55;;;1.20;;
54193;SDS011;40102;50.906;6.972;2022-09-21T12:00:09;3.22;;;1.10;;
54193;SDS011;40102;50.906;6.972;2022-09-21T12:11:00;2.15;;;1.00;;
54193;SDS011;40102;50.906;6.972;2022-09-21T12:16:28;2.25;;;1.10;;
54193;SDS011;40102;50.906;6.972;2022-09-21T12:19:04;3.25;;;1.08;;
54193;SDS011;40102;50.906;6.972;2022-09-21T12:22:04;2.75;;;0.93;;
54193;SDS011;40102;50.906;6.972;2022-09-21T12:24:41;1.65;;;0.80;;
54193;SDS011;40102;50.906;6.972;2022-09-21T12:27:15;3.58;;;0.80;;
54193;SDS011;40102;50.906;6.972;2022-09-21T12:29:58;2.47;;;0.73;;
54193;SDS011;40102;50.906;6.972;2022-09-21T12:38:04;3.58;;;0.95;;
54193;SDS011;40102;50.906;6.972;2022-09-21T12:40:57;3.53;;;0.90;;
54193;SDS011;40102;50.906;6.972;2022-09-21T12:43:50;3.33;;;1.00;;
54193;SDS011;40102;50.906;6.972;2022-09-21T12:46:39;0.98;;;0.70;;
54193;SDS011;40102;50.906;6.972;2022-09-21T12:49:16;3.85;;;0.75;;
54193;SDS011;40102;50.906;6.972;2022-09-21T12:51:52;5.22;;;1.20;;
54193;SDS011;40102;50.906;6.972;2022-09-21T13:09:56;1.35;;;0.55;;
54193;SDS011;40102;50.906;6.972;2022-09-21T13:12:28;2.65;;;0.75;;
54193;SDS011;40102;50.906;6.972;2022-09-21T13:15:03;4.57;;;0.63;;
54193;SDS011;40102;50.906;6.972;2022-09-21T13:17:37;8.32;;;0.70;;
54193;SDS011;40102;50.906;6.972;2022-09-21T13:20:21;2.88;;;1.27;;
54193;SDS011;40102;50.906;6.972;2022-09-21T13:22:47;1.83;;;0.50;;
54193;SDS011;40102;50.906;6.972;2022-09-21T13:33:31;6.88;;;0.60;;
54193;SDS011;40102;50.906;6.972;2022-09-21T13:36:04;1.23;;;0.60;;
54193;SDS011;40102;50.906;6.972;2022-09-21T13:51:27;2.28;;;0.50;;
54193;SDS011;40102;50.906;6.972;2022-09-21T13:53:57;1.25;;;0.50;;
54193;SDS011;40102;50.906;6.972;2022-09-21T13:56:26;1.98;;;0.45;;
54193;SDS011;40102;50.906;6.972;2022-09-21T13:58:54;1.25;;;0.50;;
54193;SDS011;40102;50.906;6.972;2022-09-21T14:01:29;2.05;;;0.60;;
54193;SDS011;40102;50.906;6.972;2022-09-21T14:03:59;3.05;;;1.00;;
54193;SDS011;40102;50.906;6.972;2022-09-21T14:06:34;2.17;;;0.50;;
54193;SDS011;40102;50.906;6.972;2022-09-21T14:09:07;0.77;;;0.40;;
54193;SDS011;40102;50.906;6.972;2022-09-21T14:12:03;1.38;;;0.50;;
54193;SDS011;40102;50.906;6.972;2022-09-21T14:17:01;1.73;;;0.30;;
54193;SDS011;40102;50.906;6.972;2022-09-21T14:27:12;2.15;;;0.32;;
54193;SDS011;40102;50.906;6.972;2022-09-21T14:32:18;1.45;;;0.40;;
54193;SDS011;40102;50.906;6.972;2022-09-21T14:34:48;1.98;;;0.50;;
54193;SDS011;40102;50.906;6.972;2022-09-21T14:39:55;2.40;;;0.50;;
54193;SDS011;40102;50.906;6.972;2022-09-21T14:42:23;0.95;;;0.40;;
54193;SDS011;40102;50.906;6.972;2022-09-21T14:44:52;0.65;;;0.32;;
54193;SDS011;40102;50.906;6.972;2022-09-21T14:50:33;2.58;;;0.60;;
54193;SDS011;40102;50.906;6.972;2022-09-21T14:53:16;1.35;;;0.40;;
54193;SDS011;40102;50.906;6.972;2022-09-21T15:04:11;2.20;;;0.50;;
54193;SDS011;40102;50.906;6.972;2022-09-21T15:06:49;2.55;;;0.60;;
54193;SDS011;40102;50.906;6.972;2022-09-21T15:18:20;1.98;;;0.60;;
54193;SDS011;40102;50.906;6.972;2022-09-21T15:20:54;1.42;;;0.68;;
54193;SDS011;40102;50.906;6.972;2022-09-21T15:23:25;2.40;;;0.90;;
54193;SDS011;40102;50.906;6.972;2022-09-21T15:25:54;1.25;;;0.57;;
54193;SDS011;40102;50.906;6.972;2022-09-21T15:28:28;2.50;;;0.65;;
54193;SDS011;40102;50.906;6.972;2022-09-21T15:30:59;1.35;;;0.60;;
54193;SDS011;40102;50.906;6.972;2022-09-21T15:33:25;1.95;;;0.63;;
54193;SDS011;40102;50.906;6.972;2022-09-21T15:35:51;3.08;;;0.63;;
54193;SDS011;40102;50.906;6.972;2022-09-21T15:38:31;3.58;;;0.60;;
54193;SDS011;40102;50.906;6.972;2022-09-21T15:40:59;2.80;;;0.70;;
54193;SDS011;40102;50.906;6.972;2022-09-21T15:43:24;1.05;;;0.50;;
54193;SDS011;40102;50.906;6.972;2022-09-21T15:45:52;1.92;;;0.60;;
54193;SDS011;40102;50.906;6.972;2022-09-21T15:51:00;1.80;;;0.57;;
54193;SDS011;40102;50.906;6.972;2022-09-21T15:53:33;2.38;;;0.80;;
54193;SDS011;40102;50.906;6.972;2022-09-21T15:56:02;1.63;;;0.70;;
54193;SDS011;40102;50.906;6.972;2022-09-21T15:58:32;1.95;;;0.57;;
54193;SDS011;40102;50.906;6.972;2022-09-21T16:01:09;1.48;;;0.50;;
54193;SDS011;40102;50.906;6.972;2022-09-21T16:03:38;2.42;;;0.77;;
54193;SDS011;40102;50.906;6.972;2022-09-21T16:08:49;1.13;;;0.63;;
54193;SDS011;40102;50.906;6.972;2022-09-21T16:11:16;2.63;;;0.52;;
54193;SDS011;40102;50.906;6.972;2022-09-21T16:13:58;4.32;;;0.77;;
54193;SDS011;40102;50.906;6.972;2022-09-21T16:19:43;2.75;;;0.60;;
54193;SDS011;40102;50.906;6.972;2022-09-21T16:22:37;4.00;;;0.75;;
54193;SDS011;40102;50.906;6.972;2022-09-21T16:25:38;1.67;;;0.68;;
54193;SDS011;40102;50.906;6.972;2022-09-21T16:30:48;1.80;;;0.50;;
54193;SDS011;40102;50.906;6.972;2022-09-21T16:38:58;3.88;;;0.70;;
54193;SDS011;40102;50.906;6.972;2022-09-21T16:41:28;1.35;;;0.70;;
54193;SDS011;40102;50.906;6.972;2022-09-21T16:43:58;2.33;;;0.60;;
54193;SDS011;40102;50.906;6.972;2022-09-21T16:46:24;2.22;;;0.80;;
54193;SDS011;40102;50.906;6.972;2022-09-21T16:48:51;0.88;;;0.55;;
54193;SDS011;40102;50.906;6.972;2022-09-21T16:51:17;2.15;;;0.57;;
54193;SDS011;40102;50.906;6.972;2022-09-21T16:53:48;2.65;;;0.70;;
54193;SDS011;40102;50.906;6.972;2022-09-21T16:56:14;1.80;;;0.60;;
54193;SDS011;40102;50.906;6.972;2022-09-21T16:58:41;1.20;;;0.60;;
54193;SDS011;40102;50.906;6.972;2022-09-21T17:01:08;2.47;;;0.52;;
54193;SDS011;40102;50.906;6.972;2022-09-21T17:03:36;1.42;;;0.80;;
54193;SDS011;40102;50.906;6.972;2022-09-21T17:06:03;0.95;;;0.50;;
54193;SDS011;40102;50.906;6.972;2022-09-21T17:08:29;1.92;;;0.60;;
54193;SDS011;40102;50.906;6.972;2022-09-21T17:10:56;1.95;;;0.60;;
54193;SDS011;40102;50.906;6.972;2022-09-21T17:13:22;1.48;;;0.68;;
54193;SDS011;40102;50.906;6.972;2022-09-21T17:15:48;1.67;;;0.60;;
54193;SDS011;40102;50.906;6.972;2022-09-21T17:18:14;1.63;;;0.60;;
54193;SDS011;40102;50.906;6.972;2022-09-21T17:20:40;1.17;;;0.60;;
54193;SDS011;40102;50.906;6.972;2022-09-21T17:23:08;1.42;;;0.70;;
54193;SDS011;40102;50.906;6.972;2022-09-21T17:25:34;1.13;;;0.60;;
54193;SDS011;40102;50.906;6.972;2022-09-21T17:28:01;3.22;;;0.85;;
54193;SDS011;40102;50.906;6.972;2022-09-21T17:30:28;1.60;;;0.68;;
54193;SDS011;40102;50.906;6.972;2022-09-21T17:32:54;1.75;;;0.70;;
54193;SDS011;40102;50.906;6.972;2022-09-21T17:38:20;1.60;;;0.90;;
54193;SDS011;40102;50.906;6.972;2022-09-21T17:40:45;1.80;;;1.20;;
54193;SDS011;40102;50.906;6.972;2022-09-21T17:43:23;2.97;;;1.38;;
54193;SDS011;40102;50.906;6.972;2022-09-21T17:46:04;1.98;;;1.25;;
54193;SDS011;40102;50.906;6.972;2022-09-21T17:48:37;4.03;;;1.60;;
54193;SDS011;40102;50.906;6.972;2022-09-21T17:51:04;3.03;;;1.50;;
54193;SDS011;40102;50.906;6.972;2022-09-21T17:53:29;2.78;;;1.52;;
54193;SDS011;40102;50.906;6.972;2022-09-21T17:56:25;2.75;;;1.30;;
54193;SDS011;40102;50.906;6.972;2022-09-21T17:59:04;2.58;;;1.40;;
54193;SDS011;40102;50.906;6.972;2022-09-21T18:01:37;3.53;;;1.52;;
54193;SDS011;40102;50.906;6.972;2022-09-21T18:04:06;3.42;;;1.52;;
54193;SDS011;40102;50.906;6.972;2022-09-21T18:06:35;2.88;;;1.20;;
54193;SDS011;40102;50.906;6.972;2022-09-21T18:09:00;2.10;;;1.35;;
54193;SDS011;40102;50.906;6.972;2022-09-21T18:11:39;3.53;;;1.48;;
54193;SDS011;40102;50.906;6.972;2022-09-21T18:20:13;2.53;;;1.20;;
54193;SDS011;40102;50.906;6.972;2022-09-21T18:22:51;2.20;;;1.13;;
54193;SDS011;40102;50.906;6.972;2022-09-21T18:25:30;4.10;;;1.70;;
54193;SDS011;40102;50.906;6.972;2022-09-21T18:28:00;2.70;;;1.30;;
54193;SDS011;40102;50.906;6.972;2022-09-21T18:30:33;2.20;;;1.05;;
54193;SDS011;40102;50.906;6.972;2022-09-21T18:41:10;3.00;;;1.80;;
54193;SDS011;40102;50.906;6.972;2022-09-21T18:47:28;2.72;;;1.70;;
54193;SDS011;40102;50.906;6.972;2022-09-21T18:50:05;2.83;;;1.50;;
54193;SDS011;40102;50.906;6.972;2022-09-21T18:55:25;3.00;;;1.55;;
54193;SDS011;40102;50.906;6.972;2022-09-21T18:57:55;4.80;;;1.60;;
54193;SDS011;40102;50.906;6.972;2022-09-21T19:00:27;2.72;;;1.70;;
54193;SDS011;40102;50.906;6.972;2022-09-21T19:03:00;3.40;;;1.63;;
54193;SDS011;40102;50.906;6.972;2022-09-21T19:05:27;4.32;;;2.03;;
54193;SDS011;40102;50.906;6.972;2022-09-21T19:07:55;3.53;;;1.52;;
54193;SDS011;40102;50.906;6.972;2022-09-21T19:10:30;2.97;;;1.52;;
54193;SDS011;40102;50.906;6.972;2022-09-21T19:19:28;2.70;;;1.67;;
54193;SDS011;40102;50.906;6.972;2022-09-21T19:24:54;4.82;;;1.80;;
54193;SDS011;40102;50.906;6.972;2022-09-21T19:35:27;4.93;;;2.30;;
54193;SDS011;40102;50.906;6.972;2022-09-21T19:37:54;6.45;;;2.20;;
54193;SDS011;40102;50.906;6.972;2022-09-21T19:40:22;3.88;;;2.30;;
54193;SDS011;40102;50.906;6.972;2022-09-21T19:48:14;5.45;;;3.00;;
54193;SDS011;40102;50.906;6.972;2022-09-21T19:50:52;7.55;;;2.97;;
54193;SDS011;40102;50.906;6.972;2022-09-21T19:53:20;6.93;;;2.88;;
54193;SDS011;40102;50.906;6.972;2022-09-21T19:56:07;4.97;;;2.50;;